createdAt,value
2018-07-05T00:00:46.613Z,4.40
2018-07-05T00:03:34.120Z,4.25
2018-07-05T00:06:21.622Z,4.70
2018-07-05T00:09:09.205Z,4.10
2018-07-05T00:11:56.816Z,5.00
2018-07-05T00:14:44.191Z,5.45
2018-07-05T00:17:31.507Z,4.22
2018-07-05T00:20:19.380Z,4.42
2018-07-05T00:23:06.164Z,4.90
2018-07-05T00:25:53.484Z,5.55
2018-07-05T00:28:40.890Z,5.67
2018-07-05T00:31:28.204Z,5.75
2018-07-05T00:34:15.513Z,5.00
2018-07-05T00:37:03.257Z,3.83
2018-07-05T00:39:50.711Z,5.25
2018-07-05T00:42:37.983Z,3.80
2018-07-05T00:45:25.485Z,4.10
2018-07-05T00:48:13.263Z,5.67
2018-07-05T00:51:00.758Z,6.15
2018-07-05T00:53:48.112Z,7.58
2018-07-05T00:56:35.634Z,4.40
2018-07-05T00:59:22.971Z,4.42
2018-07-05T01:02:10.372Z,5.70
2018-07-05T01:04:57.870Z,4.35
2018-07-05T01:07:45.227Z,3.77
2018-07-05T01:10:32.919Z,5.17
2018-07-05T01:13:20.411Z,4.22
2018-07-05T01:16:07.721Z,5.37
2018-07-05T01:18:55.039Z,3.80
2018-07-05T01:21:42.575Z,4.05
2018-07-05T01:24:30.285Z,3.92
2018-07-05T01:27:18.590Z,10.30
2018-07-05T01:30:07.412Z,3.77
2018-07-05T01:32:54.690Z,4.20
2018-07-05T01:35:42.086Z,6.05
2018-07-05T01:38:29.559Z,4.28
2018-07-05T01:41:17.216Z,4.22
2018-07-05T01:44:04.746Z,4.00
2018-07-05T01:46:51.980Z,6.53
2018-07-05T01:49:40.189Z,3.95
2018-07-05T01:52:27.695Z,5.45
2018-07-05T01:55:14.884Z,8.90
2018-07-05T01:58:01.827Z,4.73
2018-07-05T02:00:49.800Z,4.67
2018-07-05T02:03:37.367Z,4.30
2018-07-05T02:06:24.089Z,5.13
2018-07-05T02:09:11.387Z,5.00
2018-07-05T02:11:58.714Z,3.92
2018-07-05T02:14:46.147Z,4.77
2018-07-05T02:17:33.536Z,4.80
2018-07-05T02:20:21.588Z,3.67
2018-07-05T02:23:08.723Z,3.40
2018-07-05T02:25:56.488Z,3.65
2018-07-05T02:28:43.885Z,5.92
2018-07-05T02:31:30.753Z,6.07
2018-07-05T02:34:18.090Z,4.03
2018-07-05T02:37:05.324Z,4.97
2018-07-05T02:39:52.860Z,4.10
2018-07-05T02:42:39.800Z,4.00
2018-07-05T02:45:26.468Z,4.70
2018-07-05T02:48:13.563Z,4.40
2018-07-05T02:51:00.424Z,5.27
2018-07-05T02:53:47.193Z,7.60
2018-07-05T02:56:34.423Z,5.03
2018-07-05T02:59:21.190Z,3.73
2018-07-05T03:02:08.634Z,4.00
2018-07-05T03:04:55.394Z,4.42
2018-07-05T03:07:42.609Z,3.30
2018-07-05T03:10:30.016Z,4.45
2018-07-05T03:13:16.892Z,4.47
2018-07-05T03:16:03.865Z,6.42
2018-07-05T03:18:50.882Z,3.93
2018-07-05T03:21:38.240Z,3.30
2018-07-05T03:24:25.380Z,7.57
2018-07-05T03:27:12.724Z,4.08
2018-07-05T03:29:59.554Z,4.57
2018-07-05T03:32:46.429Z,4.53
2018-07-05T03:35:33.579Z,5.93
2018-07-05T03:38:20.364Z,4.12
2018-07-05T03:41:07.620Z,4.40
2018-07-05T03:43:54.402Z,9.17
2018-07-05T03:46:41.759Z,5.65
2018-07-05T03:49:29.376Z,6.17
2018-07-05T03:52:16.896Z,10.20
2018-07-05T03:55:04.421Z,9.03
2018-07-05T03:57:51.587Z,17.77
2018-07-05T04:00:38.307Z,10.83
2018-07-05T04:03:25.580Z,8.67
2018-07-05T04:06:12.325Z,9.83
2018-07-05T04:08:59.041Z,13.43
2018-07-05T04:11:45.914Z,11.90
2018-07-05T04:14:32.739Z,8.10
2018-07-05T04:17:20.475Z,12.13
2018-07-05T04:20:07.601Z,12.97
2018-07-05T04:22:54.463Z,9.30
2018-07-05T04:25:41.787Z,12.13
2018-07-05T04:28:28.540Z,15.23
2018-07-05T04:31:15.595Z,13.63
2018-07-05T04:34:02.307Z,17.50
2018-07-05T04:36:49.951Z,16.23
2018-07-05T04:39:36.861Z,11.67
2018-07-05T04:42:24.081Z,13.33
2018-07-05T04:45:10.856Z,13.27
2018-07-05T04:47:57.734Z,9.93
2018-07-05T04:50:44.827Z,13.77
2018-07-05T04:53:31.643Z,24.37
2018-07-05T04:56:18.350Z,9.70
2018-07-05T04:59:05.044Z,11.13
2018-07-05T05:01:51.816Z,13.27
2018-07-05T05:04:38.705Z,9.60
2018-07-05T05:07:25.776Z,9.63
2018-07-05T05:10:12.540Z,11.50
2018-07-05T05:12:59.245Z,12.97
2018-07-05T05:15:46.139Z,11.00
2018-07-05T05:18:33.216Z,12.57
2018-07-05T05:21:20.149Z,11.80
2018-07-05T05:24:07.018Z,15.83
2018-07-05T05:26:54.120Z,12.73
2018-07-05T05:29:40.925Z,9.60
2018-07-05T05:32:27.669Z,12.37
2018-07-05T05:35:14.556Z,9.70
2018-07-05T05:38:01.303Z,12.77
2018-07-05T05:40:48.119Z,11.27
2018-07-05T05:43:35.067Z,10.27
2018-07-05T05:46:21.851Z,9.80
2018-07-05T05:49:08.990Z,11.70
2018-07-05T05:51:55.733Z,12.77
2018-07-05T05:54:42.660Z,11.83
2018-07-05T05:57:29.442Z,12.40
2018-07-05T06:00:16.317Z,11.90
2018-07-05T06:03:03.020Z,10.00
2018-07-05T06:05:50.169Z,9.10
2018-07-05T06:08:37.168Z,9.67
2018-07-05T06:11:24.259Z,11.60
2018-07-05T06:14:11.182Z,11.13
2018-07-05T06:16:58.688Z,13.50
2018-07-05T06:19:45.520Z,10.10
2018-07-05T06:22:32.572Z,9.70
2018-07-05T06:25:19.356Z,10.07
2018-07-05T06:28:06.442Z,9.53
2018-07-05T06:30:54.191Z,8.27
2018-07-05T06:33:41.026Z,9.67
2018-07-05T06:36:27.782Z,8.43
2018-07-05T06:39:14.509Z,7.60
2018-07-05T06:42:01.919Z,8.30
2018-07-05T06:44:48.928Z,10.17
2018-07-05T06:47:35.695Z,7.17
2018-07-05T06:50:22.408Z,7.33
2018-07-05T06:53:09.554Z,7.97
2018-07-05T06:55:56.477Z,8.43
2018-07-05T06:58:43.232Z,9.87
2018-07-05T07:01:30.204Z,7.10
2018-07-05T07:04:16.973Z,7.20
2018-07-05T07:07:03.724Z,10.27
2018-07-05T07:09:50.410Z,5.53
2018-07-05T07:12:37.212Z,6.07
2018-07-05T07:15:23.884Z,5.50
2018-07-05T07:18:10.736Z,4.08
2018-07-05T07:20:57.600Z,5.03
2018-07-05T07:23:44.449Z,3.60
2018-07-05T07:26:31.561Z,4.60
2018-07-05T07:29:18.282Z,3.67
2018-07-05T07:32:05.170Z,4.67
2018-07-05T07:34:52.099Z,3.60
2018-07-05T07:37:38.873Z,3.60
2018-07-05T07:40:25.807Z,3.33
2018-07-05T07:42:56.512Z,3.23
2018-07-05T07:45:25.008Z,3.20
2018-07-05T07:47:53.841Z,3.97
2018-07-05T07:50:22.277Z,2.97
2018-07-05T07:52:51.400Z,3.17
2018-07-05T07:55:19.987Z,2.70
2018-07-05T07:57:48.443Z,4.63
2018-07-05T08:00:17.338Z,13.30
2018-07-05T08:02:45.774Z,4.00
2018-07-05T08:05:14.612Z,4.87
2018-07-05T08:07:43.020Z,4.30
2018-07-05T08:10:11.472Z,3.77
2018-07-05T08:12:40.134Z,10.83
2018-07-05T08:15:08.593Z,4.37
2018-07-05T08:17:37.238Z,4.80
2018-07-05T08:20:05.687Z,6.47
2018-07-05T08:22:34.111Z,5.27
2018-07-05T08:25:02.999Z,6.97
2018-07-05T08:27:31.395Z,6.80
2018-07-05T08:30:00.734Z,7.60
2018-07-05T08:32:29.112Z,6.87
2018-07-05T08:34:59.625Z,9.07
2018-07-05T08:37:27.984Z,11.37
2018-07-05T08:39:56.348Z,9.87
2018-07-05T08:42:25.427Z,10.17
2018-07-05T08:44:54.063Z,11.73
2018-07-05T08:47:23.191Z,8.10
2018-07-05T08:49:51.659Z,7.10
2018-07-05T08:52:21.733Z,11.83
2018-07-05T08:54:50.987Z,7.70
2018-07-05T08:57:19.403Z,9.90
2018-07-05T08:59:47.792Z,6.27
2018-07-05T09:02:16.375Z,11.17
2018-07-05T09:04:44.768Z,5.83
2018-07-05T09:07:13.150Z,7.07
2018-07-05T09:09:41.694Z,4.87
2018-07-05T09:12:11.273Z,6.50
2018-07-05T09:14:40.008Z,10.73
2018-07-05T09:17:08.771Z,7.73
2018-07-05T09:19:37.372Z,4.60
2018-07-05T09:22:05.758Z,5.30
2018-07-05T09:24:34.219Z,5.83
2018-07-05T09:27:02.803Z,6.77
2018-07-05T09:29:31.403Z,5.50
2018-07-05T09:32:00.407Z,7.03
2018-07-05T09:34:29.064Z,6.23
2018-07-05T09:36:58.426Z,4.60
2018-07-05T09:39:27.250Z,5.50
2018-07-05T09:41:55.690Z,7.23
2018-07-05T09:44:26.319Z,5.70
2018-07-05T09:46:54.744Z,4.43
2018-07-05T09:49:23.075Z,9.37
2018-07-05T09:51:51.464Z,5.50
2018-07-05T09:54:20.776Z,7.50
2018-07-05T09:56:49.400Z,5.30
2018-07-05T09:59:17.845Z,4.00
2018-07-05T10:01:46.512Z,3.73
2018-07-05T10:04:14.940Z,6.50
2018-07-05T10:06:43.351Z,4.03
2018-07-05T10:09:11.934Z,7.23
2018-07-05T10:11:40.472Z,4.07
2018-07-05T10:14:09.169Z,5.67
2018-07-05T10:16:37.918Z,4.10
2018-07-05T10:19:06.960Z,4.03
2018-07-05T10:21:35.750Z,3.40
2018-07-05T10:24:07.031Z,3.67
2018-07-05T10:26:35.732Z,4.33
2018-07-05T10:29:22.889Z,4.00
2018-07-05T10:32:09.986Z,4.90
2018-07-05T10:34:38.364Z,5.03
2018-07-05T10:37:07.170Z,3.70
2018-07-05T10:39:36.066Z,3.70
2018-07-05T10:42:23.183Z,6.63
2018-07-05T10:45:10.031Z,5.10
2018-07-05T10:47:56.784Z,5.47
2018-07-05T10:50:43.801Z,5.57
2018-07-05T10:53:30.754Z,5.83
2018-07-05T10:56:17.551Z,5.37
2018-07-05T10:59:04.810Z,7.30
2018-07-05T11:01:51.723Z,7.03
2018-07-05T11:04:38.535Z,7.73
2018-07-05T11:07:26.328Z,6.40
2018-07-05T11:10:14.585Z,7.85
2018-07-05T11:13:01.421Z,5.73
2018-07-05T11:15:48.648Z,6.15
2018-07-05T11:18:36.420Z,6.50
2018-07-05T11:21:23.866Z,7.70
2018-07-05T11:24:11.248Z,7.15
2018-07-05T11:27:00.403Z,16.27
2018-07-05T11:29:48.788Z,7.65
2018-07-05T11:32:36.228Z,6.55
2018-07-05T11:35:22.970Z,9.50
2018-07-05T11:38:10.299Z,6.28
2018-07-05T11:40:57.720Z,9.63
2018-07-05T11:43:45.330Z,7.78
2018-07-05T11:46:34.155Z,8.70
2018-07-05T11:49:21.812Z,5.72
2018-07-05T11:52:10.719Z,5.50
2018-07-05T11:54:58.592Z,4.95
2018-07-05T11:57:47.229Z,6.33
2018-07-05T12:00:34.551Z,6.25
2018-07-05T12:03:21.358Z,7.07
2018-07-05T12:06:08.949Z,6.78
2018-07-05T12:08:55.789Z,10.27
2018-07-05T12:11:43.058Z,7.80
2018-07-05T12:14:30.624Z,5.83
2018-07-05T12:17:18.333Z,8.93
2018-07-05T12:20:05.589Z,6.93
2018-07-05T12:22:52.544Z,8.77
2018-07-05T12:25:39.362Z,7.17
2018-07-05T12:28:26.318Z,6.70
2018-07-05T12:31:13.137Z,7.23
2018-07-05T12:34:01.540Z,6.50
2018-07-05T12:36:48.421Z,6.27
2018-07-05T12:39:35.272Z,7.40
2018-07-05T12:42:22.062Z,8.20
2018-07-05T12:45:09.151Z,7.00
2018-07-05T12:47:56.755Z,6.70
2018-07-05T12:50:44.087Z,5.43
2018-07-05T12:53:32.789Z,8.78
2018-07-05T12:56:20.681Z,6.22
2018-07-05T12:59:08.235Z,7.80
2018-07-05T13:01:56.616Z,6.85
2018-07-05T13:04:44.048Z,7.58
2018-07-05T13:07:32.396Z,6.87
2018-07-05T13:10:19.927Z,6.80
2018-07-05T13:13:07.205Z,9.73
2018-07-05T13:15:54.150Z,6.85
2018-07-05T13:18:41.437Z,9.40
2018-07-05T13:21:28.415Z,7.37
2018-07-05T13:24:15.194Z,7.43
2018-07-05T13:27:02.079Z,6.80
2018-07-05T13:29:48.978Z,6.80
2018-07-05T13:32:36.104Z,8.93
2018-07-05T13:35:23.136Z,10.07
2018-07-05T13:38:10.291Z,6.20
2018-07-05T13:40:57.095Z,6.67
2018-07-05T13:43:43.962Z,7.40
2018-07-05T13:46:30.931Z,9.00
2018-07-05T13:49:17.986Z,7.30
2018-07-05T13:52:05.151Z,6.83
2018-07-05T13:54:52.140Z,12.93
2018-07-05T13:57:39.460Z,9.43
2018-07-05T14:00:26.948Z,13.93
2018-07-05T14:03:13.801Z,11.77
2018-07-05T14:06:00.944Z,7.23
2018-07-05T14:08:47.804Z,8.73
2018-07-05T14:11:35.152Z,7.43
2018-07-05T14:14:22.230Z,9.17
2018-07-05T14:17:09.378Z,10.70
2018-07-05T14:19:56.545Z,9.23
2018-07-05T14:22:43.383Z,12.13
2018-07-05T14:25:30.293Z,8.83
2018-07-05T14:28:17.141Z,8.50
2018-07-05T14:31:05.176Z,10.97
2018-07-05T14:33:52.274Z,10.53
2018-07-05T14:36:39.440Z,9.67
2018-07-05T14:39:26.229Z,8.60
2018-07-05T14:42:13.279Z,9.43
2018-07-05T14:45:00.130Z,8.70
2018-07-05T14:47:47.075Z,8.57
2018-07-05T14:50:33.989Z,9.17
2018-07-05T14:53:21.230Z,9.08
2018-07-05T14:56:08.383Z,10.20
2018-07-05T14:58:55.236Z,8.47
2018-07-05T15:01:42.239Z,10.23
2018-07-05T15:04:29.054Z,11.17
2018-07-05T15:07:16.023Z,10.27
2018-07-05T15:10:02.994Z,9.40
2018-07-05T15:12:49.994Z,10.37
2018-07-05T15:15:37.272Z,9.03
2018-07-05T15:18:24.245Z,9.70
2018-07-05T15:21:11.406Z,9.73
2018-07-05T15:23:58.211Z,9.00
2018-07-05T15:26:45.093Z,10.00
2018-07-05T15:29:31.990Z,9.43
2018-07-05T15:32:19.306Z,8.40
2018-07-05T15:35:05.988Z,13.47
2018-07-05T15:37:53.197Z,8.73
2018-07-05T15:40:40.160Z,12.13
2018-07-05T15:43:27.138Z,10.10
2018-07-05T15:46:14.319Z,11.00
2018-07-05T15:49:01.464Z,11.10
2018-07-05T15:51:48.485Z,11.03
2018-07-05T15:54:35.523Z,9.03
2018-07-05T15:57:22.533Z,9.90
2018-07-05T16:00:10.384Z,9.37
2018-07-05T16:02:57.235Z,8.13
2018-07-05T16:05:44.297Z,8.80
2018-07-05T16:08:31.486Z,7.70
2018-07-05T16:11:18.407Z,5.70
2018-07-05T16:14:05.320Z,4.60
2018-07-05T16:16:52.922Z,3.93
2018-07-05T16:19:40.005Z,6.97
2018-07-05T16:22:27.255Z,4.30
2018-07-05T16:25:14.252Z,8.27
2018-07-05T16:28:02.650Z,4.03
2018-07-05T16:30:49.630Z,5.00
2018-07-05T16:33:36.694Z,5.27
2018-07-05T16:36:23.750Z,4.57
2018-07-05T16:39:10.746Z,4.30
2018-07-05T16:41:57.817Z,4.70
2018-07-05T16:44:44.868Z,4.90
2018-07-05T16:47:31.741Z,4.77
2018-07-05T16:50:18.687Z,5.03
2018-07-05T16:53:05.990Z,6.77
2018-07-05T16:55:52.928Z,6.07
2018-07-05T16:58:39.848Z,5.53
2018-07-05T17:01:26.749Z,5.30
2018-07-05T17:04:13.837Z,6.03
2018-07-05T17:07:00.646Z,5.70
2018-07-05T17:09:47.975Z,5.47
2018-07-05T17:12:34.895Z,5.50
2018-07-05T17:15:21.729Z,7.00
2018-07-05T17:18:08.838Z,5.33
2018-07-05T17:20:56.011Z,7.33
2018-07-05T17:23:43.503Z,5.87
2018-07-05T17:26:30.386Z,5.90
2018-07-05T17:29:18.477Z,6.17
2018-07-05T17:32:07.271Z,6.00
2018-07-05T17:34:54.520Z,7.00
2018-07-05T17:37:41.634Z,7.00
2018-07-05T17:40:30.279Z,8.90
2018-07-05T17:43:17.344Z,6.53
2018-07-05T17:46:04.497Z,7.50
2018-07-05T17:48:51.649Z,8.80
2018-07-05T17:51:38.773Z,5.80
2018-07-05T17:54:25.991Z,6.43
2018-07-05T17:57:12.804Z,8.83
2018-07-05T17:59:59.748Z,6.60
2018-07-05T18:02:47.992Z,6.47
2018-07-05T18:05:34.992Z,5.43
2018-07-05T18:08:22.211Z,5.43
2018-07-05T18:11:09.920Z,6.43
2018-07-05T18:13:57.396Z,6.20
2018-07-05T18:16:44.237Z,9.13
2018-07-05T18:19:31.225Z,6.63
2018-07-05T18:22:18.575Z,7.30
2018-07-05T18:25:05.506Z,9.53
2018-07-05T18:27:52.641Z,9.13
2018-07-05T18:30:39.743Z,9.07
2018-07-05T18:33:26.910Z,8.70
2018-07-05T18:36:13.787Z,8.77
2018-07-05T18:39:00.666Z,8.67
2018-07-05T18:41:47.469Z,9.07
2018-07-05T18:44:34.623Z,11.90
2018-07-05T18:47:21.615Z,9.83
2018-07-05T18:50:08.561Z,8.47
2018-07-05T18:52:55.550Z,6.87
2018-07-05T18:55:42.429Z,13.33
2018-07-05T18:58:29.385Z,7.50
2018-07-05T19:01:16.385Z,9.50
2018-07-05T19:04:03.344Z,10.37
2018-07-05T19:06:50.367Z,9.63
2018-07-05T19:09:37.265Z,11.63
2018-07-05T19:12:23.970Z,8.37
2018-07-05T19:15:11.013Z,10.23
2018-07-05T19:17:58.996Z,8.57
2018-07-05T19:20:46.105Z,10.23
2018-07-05T19:23:33.163Z,8.53
2018-07-05T19:26:20.021Z,8.00
2018-07-05T19:29:07.148Z,7.83
2018-07-05T19:31:54.461Z,10.20
2018-07-05T19:34:41.387Z,9.43
2018-07-05T19:37:28.370Z,7.47
2018-07-05T19:40:16.260Z,9.00
2018-07-05T19:43:03.435Z,9.20
2018-07-05T19:45:50.423Z,10.83
2018-07-05T19:48:37.633Z,7.37
2018-07-05T19:51:24.592Z,8.10
2018-07-05T19:54:11.689Z,8.23
2018-07-05T19:56:58.759Z,9.30
2018-07-05T19:59:45.564Z,7.17
2018-07-05T20:02:32.553Z,7.23
2018-07-05T20:05:19.707Z,7.00
2018-07-05T20:08:06.662Z,7.60
2018-07-05T20:10:59.948Z,13.17
2018-07-05T20:13:47.050Z,11.07
2018-07-05T20:16:33.936Z,7.10
2018-07-05T20:19:20.964Z,9.17
2018-07-05T20:22:22.475Z,7.73
2018-07-05T20:25:10.033Z,7.13
2018-07-05T20:27:57.088Z,5.87
2018-07-05T20:30:44.075Z,10.13
2018-07-05T20:33:31.066Z,7.80
2018-07-05T20:36:18.405Z,8.10
2018-07-05T20:39:06.458Z,8.80
2018-07-05T20:41:53.472Z,6.10
2018-07-05T20:44:41.002Z,6.30
2018-07-05T20:47:27.909Z,7.27
2018-07-05T20:50:14.815Z,6.43
2018-07-05T20:53:01.912Z,7.47
2018-07-05T20:55:48.935Z,7.83
2018-07-05T20:58:35.764Z,4.70
2018-07-05T21:01:23.509Z,6.10
2018-07-05T21:04:10.668Z,4.57
2018-07-05T21:06:58.251Z,5.30
2018-07-05T21:09:45.341Z,7.73
2018-07-05T21:12:32.921Z,6.17
2018-07-05T21:15:20.196Z,6.23
2018-07-05T21:18:07.241Z,5.63
2018-07-05T21:20:54.521Z,5.33
2018-07-05T21:23:41.548Z,7.40
2018-07-05T21:26:28.520Z,6.00
2018-07-05T21:29:15.671Z,7.80
2018-07-05T21:32:02.970Z,5.70
2018-07-05T21:34:50.149Z,6.70
2018-07-05T21:37:37.417Z,7.30
2018-07-05T21:40:24.629Z,8.80
2018-07-05T21:43:13.215Z,6.57
2018-07-05T21:46:01.228Z,6.63
2018-07-05T21:48:48.525Z,4.77
2018-07-05T21:51:35.399Z,5.30
2018-07-05T21:54:23.860Z,5.60
2018-07-05T21:57:11.136Z,5.70
2018-07-05T21:59:58.025Z,5.13
2018-07-05T22:02:44.736Z,4.90
2018-07-05T22:05:31.756Z,5.70
2018-07-05T22:08:18.588Z,6.57
2018-07-05T22:11:05.570Z,4.43
2018-07-05T22:13:52.329Z,8.33
2018-07-05T22:16:43.327Z,9.33
2018-07-05T22:19:35.439Z,6.90
2018-07-05T22:22:27.495Z,8.53
2018-07-05T22:25:19.920Z,5.53
2018-07-05T22:28:11.981Z,6.77
2018-07-05T22:31:04.092Z,9.67
2018-07-05T22:33:50.939Z,6.90
2018-07-05T22:36:37.766Z,6.77
2018-07-05T22:39:24.603Z,6.90
2018-07-05T22:42:11.726Z,8.37
2018-07-05T22:44:58.483Z,7.10
2018-07-05T22:47:45.226Z,9.63
2018-07-05T22:50:33.457Z,6.07
2018-07-05T22:53:20.249Z,9.37
2018-07-05T22:56:07.113Z,10.50
2018-07-05T22:58:53.848Z,5.57
2018-07-05T23:01:40.689Z,9.27
2018-07-05T23:04:27.482Z,8.40
2018-07-05T23:07:14.451Z,8.37
2018-07-05T23:10:01.387Z,5.87
2018-07-05T23:12:48.109Z,9.63
2018-07-05T23:15:34.801Z,5.73
2018-07-05T23:18:21.517Z,6.70
2018-07-05T23:21:08.214Z,5.93
2018-07-05T23:23:54.956Z,7.20
2018-07-05T23:26:41.622Z,6.00
2018-07-05T23:29:28.345Z,6.80
2018-07-05T23:32:15.296Z,6.47
2018-07-05T23:35:02.031Z,7.40
2018-07-05T23:37:48.874Z,6.07
2018-07-05T23:40:35.742Z,6.80
2018-07-05T23:43:22.817Z,5.20
2018-07-05T23:46:09.481Z,5.20
2018-07-05T23:48:56.263Z,6.70
2018-07-05T23:51:42.999Z,4.80
2018-07-05T23:54:29.816Z,4.57
2018-07-05T23:57:16.572Z,6.30
